sensor_id;sensor_type;location;lat;lon;timestamp;temperature;humidity
27409;DHT22;20413;50.782;7.152;2023-03-11T00:02:12;2.80;99.90
27409;DHT22;20413;50.782;7.152;2023-03-11T00:04:38;2.80;99.90
27409;DHT22;20413;50.782;7.152;2023-03-11T00:07:07;2.90;99.90
27409;DHT22;20413;50.782;7.152;2023-03-11T00:09:34;2.90;99.90
27409;DHT22;20413;50.782;7.152;2023-03-11T00:12:00;2.80;99.90
27409;DHT22;20413;50.782;7.152;2023-03-11T00:14:26;2.90;99.90
27409;DHT22;20413;50.782;7.152;2023-03-11T00:16:51;2.90;99.90
27409;DHT22;20413;50.782;7.152;2023-03-11T00:19:17;2.90;99.90
27409;DHT22;20413;50.782;7.152;2023-03-11T00:21:42;2.90;99.90
27409;DHT22;20413;50.782;7.152;2023-03-11T00:24:08;2.80;99.90
27409;DHT22;20413;50.782;7.152;2023-03-11T00:26:34;2.80;99.90
27409;DHT22;20413;50.782;7.152;2023-03-11T00:28:59;2.80;99.90
27409;DHT22;20413;50.782;7.152;2023-03-11T00:31:25;2.80;99.90
27409;DHT22;20413;50.782;7.152;2023-03-11T00:33:52;2.80;99.90
27409;DHT22;20413;50.782;7.152;2023-03-11T00:36:29;2.80;99.90
27409;DHT22;20413;50.782;7.152;2023-03-11T00:38:56;2.80;99.90
27409;DHT22;20413;50.782;7.152;2023-03-11T00:41:22;2.70;99.90
27409;DHT22;20413;50.782;7.152;2023-03-11T00:43:48;2.70;99.90
27409;DHT22;20413;50.782;7.152;2023-03-11T00:46:13;2.60;99.90
27409;DHT22;20413;50.782;7.152;2023-03-11T00:48:39;2.60;99.90
27409;DHT22;20413;50.782;7.152;2023-03-11T00:51:06;2.50;99.90
27409;DHT22;20413;50.782;7.152;2023-03-11T00:53:32;2.50;99.90
27409;DHT22;20413;50.782;7.152;2023-03-11T00:55:58;2.50;99.90
27409;DHT22;20413;50.782;7.152;2023-03-11T00:58:25;2.60;99.90
27409;DHT22;20413;50.782;7.152;2023-03-11T01:00:52;2.60;99.90
27409;DHT22;20413;50.782;7.152;2023-03-11T01:03:18;2.60;99.90
27409;DHT22;20413;50.782;7.152;2023-03-11T01:05:43;2.60;99.90
27409;DHT22;20413;50.782;7.152;2023-03-11T01:08:09;2.60;99.90
27409;DHT22;20413;50.782;7.152;2023-03-11T01:10:35;2.60;99.90
27409;DHT22;20413;50.782;7.152;2023-03-11T01:13:02;2.70;99.90
27409;DHT22;20413;50.782;7.152;2023-03-11T01:15:33;2.70;99.90
27409;DHT22;20413;50.782;7.152;2023-03-11T01:17:59;2.70;99.90
27409;DHT22;20413;50.782;7.152;2023-03-11T01:20:25;2.60;99.90
27409;DHT22;20413;50.782;7.152;2023-03-11T01:22:51;2.60;99.90
27409;DHT22;20413;50.782;7.152;2023-03-11T01:25:18;2.60;99.90
27409;DHT22;20413;50.782;7.152;2023-03-11T01:27:44;2.60;99.90
27409;DHT22;20413;50.782;7.152;2023-03-11T01:30:14;2.60;99.90
27409;DHT22;20413;50.782;7.152;2023-03-11T01:32:40;2.60;99.90
27409;DHT22;20413;50.782;7.152;2023-03-11T01:35:06;2.60;99.90
27409;DHT22;20413;50.782;7.152;2023-03-11T01:37:31;2.60;99.90
27409;DHT22;20413;50.782;7.152;2023-03-11T01:39:57;2.60;99.90
27409;DHT22;20413;50.782;7.152;2023-03-11T01:42:23;2.70;99.90
27409;DHT22;20413;50.782;7.152;2023-03-11T01:44:48;2.70;99.90
27409;DHT22;20413;50.782;7.152;2023-03-11T01:47:35;2.70;99.90
27409;DHT22;20413;50.782;7.152;2023-03-11T01:50:03;2.80;99.90
27409;DHT22;20413;50.782;7.152;2023-03-11T01:52:30;2.80;99.90
27409;DHT22;20413;50.782;7.152;2023-03-11T01:54:55;2.80;99.90
27409;DHT22;20413;50.782;7.152;2023-03-11T01:57:21;2.80;99.90
27409;DHT22;20413;50.782;7.152;2023-03-11T01:59:50;2.80;99.90
27409;DHT22;20413;50.782;7.152;2023-03-11T02:02:20;2.80;99.90
27409;DHT22;20413;50.782;7.152;2023-03-11T02:04:47;2.80;99.90
27409;DHT22;20413;50.782;7.152;2023-03-11T02:07:14;2.80;99.90
27409;DHT22;20413;50.782;7.152;2023-03-11T02:09:40;2.80;99.90
27409;DHT22;20413;50.782;7.152;2023-03-11T02:12:08;2.80;99.90
27409;DHT22;20413;50.782;7.152;2023-03-11T02:14:37;2.70;99.90
27409;DHT22;20413;50.782;7.152;2023-03-11T02:17:04;2.80;99.90
27409;DHT22;20413;50.782;7.152;2023-03-11T02:22:40;2.80;99.90
27409;DHT22;20413;50.782;7.152;2023-03-11T02:27:53;2.80;99.90
27409;DHT22;20413;50.782;7.152;2023-03-11T02:30:21;2.80;99.90
27409;DHT22;20413;50.782;7.152;2023-03-11T02:32:47;2.80;99.90
27409;DHT22;20413;50.782;7.152;2023-03-11T02:35:14;2.80;99.90
27409;DHT22;20413;50.782;7.152;2023-03-11T02:37:45;2.80;99.90
27409;DHT22;20413;50.782;7.152;2023-03-11T02:42:51;2.80;99.90
27409;DHT22;20413;50.782;7.152;2023-03-11T02:45:22;2.70;99.90
27409;DHT22;20413;50.782;7.152;2023-03-11T02:47:48;2.70;99.90
27409;DHT22;20413;50.782;7.152;2023-03-11T02:50:17;2.70;99.90
27409;DHT22;20413;50.782;7.152;2023-03-11T02:52:43;2.60;99.90
27409;DHT22;20413;50.782;7.152;2023-03-11T02:55:10;2.60;99.90
27409;DHT22;20413;50.782;7.152;2023-03-11T02:57:37;2.60;99.90
27409;DHT22;20413;50.782;7.152;2023-03-11T03:00:03;2.50;99.90
27409;DHT22;20413;50.782;7.152;2023-03-11T03:02:35;2.50;99.90
27409;DHT22;20413;50.782;7.152;2023-03-11T03:05:01;2.50;99.90
27409;DHT22;20413;50.782;7.152;2023-03-11T03:07:27;2.50;99.90
27409;DHT22;20413;50.782;7.152;2023-03-11T03:09:53;2.50;99.90
27409;DHT22;20413;50.782;7.152;2023-03-11T03:12:18;2.50;99.90
27409;DHT22;20413;50.782;7.152;2023-03-11T03:14:44;2.50;99.90
27409;DHT22;20413;50.782;7.152;2023-03-11T03:17:09;2.40;99.90
27409;DHT22;20413;50.782;7.152;2023-03-11T03:19:35;2.40;99.90
27409;DHT22;20413;50.782;7.152;2023-03-11T03:22:00;2.40;99.90
27409;DHT22;20413;50.782;7.152;2023-03-11T03:24:26;2.40;99.90
27409;DHT22;20413;50.782;7.152;2023-03-11T03:26:51;2.30;99.90
27409;DHT22;20413;50.782;7.152;2023-03-11T03:29:17;2.30;99.90
27409;DHT22;20413;50.782;7.152;2023-03-11T03:31:42;2.40;99.90
27409;DHT22;20413;50.782;7.152;2023-03-11T03:34:08;2.30;99.90
27409;DHT22;20413;50.782;7.152;2023-03-11T03:36:34;2.30;99.90
27409;DHT22;20413;50.782;7.152;2023-03-11T03:39:00;2.20;99.90
27409;DHT22;20413;50.782;7.152;2023-03-11T03:41:26;2.20;99.90
27409;DHT22;20413;50.782;7.152;2023-03-11T03:43:52;2.20;99.90
27409;DHT22;20413;50.782;7.152;2023-03-11T03:46:19;2.20;99.90
27409;DHT22;20413;50.782;7.152;2023-03-11T03:48:45;2.00;99.90
27409;DHT22;20413;50.782;7.152;2023-03-11T03:51:12;2.00;99.90
27409;DHT22;20413;50.782;7.152;2023-03-11T03:53:37;2.00;99.90
27409;DHT22;20413;50.782;7.152;2023-03-11T03:56:04;2.00;99.90
27409;DHT22;20413;50.782;7.152;2023-03-11T03:58:30;1.80;99.90
27409;DHT22;20413;50.782;7.152;2023-03-11T04:00:57;1.80;99.90
27409;DHT22;20413;50.782;7.152;2023-03-11T04:03:23;1.70;99.90
27409;DHT22;20413;50.782;7.152;2023-03-11T04:05:49;1.70;99.90
27409;DHT22;20413;50.782;7.152;2023-03-11T04:08:15;1.60;99.90
27409;DHT22;20413;50.782;7.152;2023-03-11T04:10:40;1.60;99.90
27409;DHT22;20413;50.782;7.152;2023-03-11T04:13:06;1.50;99.90
27409;DHT22;20413;50.782;7.152;2023-03-11T04:15:31;1.50;99.90
27409;DHT22;20413;50.782;7.152;2023-03-11T04:17:57;1.50;99.90
27409;DHT22;20413;50.782;7.152;2023-03-11T04:20:22;1.40;99.90
27409;DHT22;20413;50.782;7.152;2023-03-11T04:22:48;1.40;99.90
27409;DHT22;20413;50.782;7.152;2023-03-11T04:25:13;1.30;99.90
27409;DHT22;20413;50.782;7.152;2023-03-11T04:27:39;1.30;99.90
27409;DHT22;20413;50.782;7.152;2023-03-11T04:30:08;1.30;99.90
27409;DHT22;20413;50.782;7.152;2023-03-11T04:32:34;1.20;99.90
27409;DHT22;20413;50.782;7.152;2023-03-11T04:34:59;1.20;99.90
27409;DHT22;20413;50.782;7.152;2023-03-11T04:37:28;1.20;99.90
27409;DHT22;20413;50.782;7.152;2023-03-11T04:39:54;1.10;99.90
27409;DHT22;20413;50.782;7.152;2023-03-11T04:42:19;1.10;99.90
27409;DHT22;20413;50.782;7.152;2023-03-11T04:44:45;1.10;99.90
27409;DHT22;20413;50.782;7.152;2023-03-11T04:47:10;1.10;99.90
27409;DHT22;20413;50.782;7.152;2023-03-11T04:49:36;1.00;99.90
27409;DHT22;20413;50.782;7.152;2023-03-11T04:52:02;1.00;99.90
27409;DHT22;20413;50.782;7.152;2023-03-11T04:54:27;1.00;99.90
27409;DHT22;20413;50.782;7.152;2023-03-11T04:56:53;1.00;99.90
27409;DHT22;20413;50.782;7.152;2023-03-11T04:59:18;1.10;99.90
27409;DHT22;20413;50.782;7.152;2023-03-11T05:01:45;1.10;99.90
27409;DHT22;20413;50.782;7.152;2023-03-11T05:04:10;1.10;99.90
27409;DHT22;20413;50.782;7.152;2023-03-11T05:06:37;1.10;99.90
27409;DHT22;20413;50.782;7.152;2023-03-11T05:09:03;1.00;99.90
27409;DHT22;20413;50.782;7.152;2023-03-11T05:11:29;0.90;99.90
27409;DHT22;20413;50.782;7.152;2023-03-11T05:13:55;0.90;99.90
27409;DHT22;20413;50.782;7.152;2023-03-11T05:16:20;0.80;99.90
27409;DHT22;20413;50.782;7.152;2023-03-11T05:18:46;0.80;99.90
27409;DHT22;20413;50.782;7.152;2023-03-11T05:21:12;0.70;99.90
27409;DHT22;20413;50.782;7.152;2023-03-11T05:23:37;0.70;99.90
27409;DHT22;20413;50.782;7.152;2023-03-11T05:26:04;0.70;99.90
27409;DHT22;20413;50.782;7.152;2023-03-11T05:28:29;0.60;99.90
27409;DHT22;20413;50.782;7.152;2023-03-11T05:30:55;0.60;99.90
27409;DHT22;20413;50.782;7.152;2023-03-11T05:33:20;0.60;99.90
27409;DHT22;20413;50.782;7.152;2023-03-11T05:35:46;0.60;99.90
27409;DHT22;20413;50.782;7.152;2023-03-11T05:38:11;0.60;99.90
27409;DHT22;20413;50.782;7.152;2023-03-11T05:40:37;0.60;99.90
27409;DHT22;20413;50.782;7.152;2023-03-11T05:43:03;0.60;99.90
27409;DHT22;20413;50.782;7.152;2023-03-11T05:45:28;0.60;99.90
27409;DHT22;20413;50.782;7.152;2023-03-11T05:47:54;0.60;99.90
27409;DHT22;20413;50.782;7.152;2023-03-11T05:50:19;0.70;99.90
27409;DHT22;20413;50.782;7.152;2023-03-11T05:52:45;0.70;99.90
27409;DHT22;20413;50.782;7.152;2023-03-11T05:55:11;0.70;99.90
27409;DHT22;20413;50.782;7.152;2023-03-11T05:57:37;0.80;99.90
27409;DHT22;20413;50.782;7.152;2023-03-11T06:00:07;0.90;99.90
27409;DHT22;20413;50.782;7.152;2023-03-11T06:02:37;1.00;99.90
27409;DHT22;20413;50.782;7.152;2023-03-11T06:05:04;1.00;99.90
27409;DHT22;20413;50.782;7.152;2023-03-11T06:07:30;1.00;99.90
27409;DHT22;20413;50.782;7.152;2023-03-11T06:09:55;1.10;99.90
27409;DHT22;20413;50.782;7.152;2023-03-11T06:12:21;1.10;99.90
27409;DHT22;20413;50.782;7.152;2023-03-11T06:14:46;1.10;99.90
27409;DHT22;20413;50.782;7.152;2023-03-11T06:17:12;1.10;99.90
27409;DHT22;20413;50.782;7.152;2023-03-11T06:19:37;1.10;99.90
27409;DHT22;20413;50.782;7.152;2023-03-11T06:22:03;1.10;99.90
27409;DHT22;20413;50.782;7.152;2023-03-11T06:24:29;1.10;99.90
27409;DHT22;20413;50.782;7.152;2023-03-11T06:26:54;1.10;99.90
27409;DHT22;20413;50.782;7.152;2023-03-11T06:29:20;1.20;99.90
27409;DHT22;20413;50.782;7.152;2023-03-11T06:31:48;1.20;99.90
27409;DHT22;20413;50.782;7.152;2023-03-11T06:34:14;1.30;99.90
27409;DHT22;20413;50.782;7.152;2023-03-11T06:36:40;1.30;99.90
27409;DHT22;20413;50.782;7.152;2023-03-11T06:39:05;1.40;99.90
27409;DHT22;20413;50.782;7.152;2023-03-11T06:41:34;1.60;99.90
27409;DHT22;20413;50.782;7.152;2023-03-11T06:44:00;1.60;99.90
27409;DHT22;20413;50.782;7.152;2023-03-11T06:46:25;1.80;99.90
27409;DHT22;20413;50.782;7.152;2023-03-11T06:48:51;1.90;99.90
27409;DHT22;20413;50.782;7.152;2023-03-11T06:51:17;2.00;99.90
27409;DHT22;20413;50.782;7.152;2023-03-11T06:53:44;2.10;99.90
27409;DHT22;20413;50.782;7.152;2023-03-11T06:56:12;2.30;99.90
27409;DHT22;20413;50.782;7.152;2023-03-11T06:58:40;2.50;99.90
27409;DHT22;20413;50.782;7.152;2023-03-11T07:01:09;2.70;99.90
27409;DHT22;20413;50.782;7.152;2023-03-11T07:03:34;2.90;99.90
27409;DHT22;20413;50.782;7.152;2023-03-11T07:06:00;3.10;99.90
27409;DHT22;20413;50.782;7.152;2023-03-11T07:08:26;3.20;99.90
27409;DHT22;20413;50.782;7.152;2023-03-11T07:11:07;3.30;99.90
27409;DHT22;20413;50.782;7.152;2023-03-11T07:13:34;3.30;99.90
27409;DHT22;20413;50.782;7.152;2023-03-11T07:16:06;3.20;99.90
27409;DHT22;20413;50.782;7.152;2023-03-11T07:18:32;3.30;99.90
27409;DHT22;20413;50.782;7.152;2023-03-11T07:20:59;3.30;99.90
27409;DHT22;20413;50.782;7.152;2023-03-11T07:23:25;3.30;99.90
27409;DHT22;20413;50.782;7.152;2023-03-11T07:25:50;3.40;99.90
27409;DHT22;20413;50.782;7.152;2023-03-11T07:28:17;3.50;99.90
27409;DHT22;20413;50.782;7.152;2023-03-11T07:30:43;3.50;99.90
27409;DHT22;20413;50.782;7.152;2023-03-11T07:33:11;3.60;99.90
27409;DHT22;20413;50.782;7.152;2023-03-11T07:35:36;3.60;99.90
27409;DHT22;20413;50.782;7.152;2023-03-11T07:38:02;3.70;99.90
27409;DHT22;20413;50.782;7.152;2023-03-11T07:40:27;3.90;99.90
27409;DHT22;20413;50.782;7.152;2023-03-11T07:42:53;3.90;99.90
27409;DHT22;20413;50.782;7.152;2023-03-11T07:45:18;4.00;99.90
27409;DHT22;20413;50.782;7.152;2023-03-11T07:47:44;4.10;99.90
27409;DHT22;20413;50.782;7.152;2023-03-11T07:50:10;4.10;99.90
27409;DHT22;20413;50.782;7.152;2023-03-11T07:52:35;4.10;99.90
27409;DHT22;20413;50.782;7.152;2023-03-11T07:55:01;4.10;99.90
27409;DHT22;20413;50.782;7.152;2023-03-11T07:57:27;4.30;99.90
27409;DHT22;20413;50.782;7.152;2023-03-11T07:59:52;4.40;99.90
27409;DHT22;20413;50.782;7.152;2023-03-11T08:02:18;4.60;99.90
27409;DHT22;20413;50.782;7.152;2023-03-11T08:04:43;4.70;99.90
27409;DHT22;20413;50.782;7.152;2023-03-11T08:07:09;4.70;99.90
27409;DHT22;20413;50.782;7.152;2023-03-11T08:09:34;4.80;99.90
27409;DHT22;20413;50.782;7.152;2023-03-11T08:12:00;4.90;99.90
27409;DHT22;20413;50.782;7.152;2023-03-11T08:14:25;4.90;99.90
27409;DHT22;20413;50.782;7.152;2023-03-11T08:16:51;5.30;99.90
27409;DHT22;20413;50.782;7.152;2023-03-11T08:19:17;6.00;99.90
27409;DHT22;20413;50.782;7.152;2023-03-11T08:26:35;9.60;99.90
27409;DHT22;20413;50.782;7.152;2023-03-11T08:29:01;9.80;99.90
27409;DHT22;20413;50.782;7.152;2023-03-11T08:31:29;11.00;99.90
27409;DHT22;20413;50.782;7.152;2023-03-11T08:34:04;11.60;99.90
27409;DHT22;20413;50.782;7.152;2023-03-11T08:36:30;11.70;99.90
27409;DHT22;20413;50.782;7.152;2023-03-11T08:38:57;12.10;99.90
27409;DHT22;20413;50.782;7.152;2023-03-11T08:41:23;12.60;99.90
27409;DHT22;20413;50.782;7.152;2023-03-11T08:43:48;13.50;99.90
27409;DHT22;20413;50.782;7.152;2023-03-11T08:46:33;13.50;99.90
27409;DHT22;20413;50.782;7.152;2023-03-11T08:48:59;12.80;99.90
27409;DHT22;20413;50.782;7.152;2023-03-11T08:51:26;12.30;99.90
27409;DHT22;20413;50.782;7.152;2023-03-11T08:53:52;12.60;99.90
27409;DHT22;20413;50.782;7.152;2023-03-11T08:56:18;13.30;99.90
27409;DHT22;20413;50.782;7.152;2023-03-11T08:58:46;13.10;99.90
27409;DHT22;20413;50.782;7.152;2023-03-11T09:01:12;13.30;99.90
27409;DHT22;20413;50.782;7.152;2023-03-11T09:03:38;13.50;99.90
27409;DHT22;20413;50.782;7.152;2023-03-11T09:06:07;13.90;99.90
27409;DHT22;20413;50.782;7.152;2023-03-11T09:08:34;14.10;99.90
27409;DHT22;20413;50.782;7.152;2023-03-11T09:11:00;14.20;99.20
27409;DHT22;20413;50.782;7.152;2023-03-11T09:13:26;13.90;99.20
27409;DHT22;20413;50.782;7.152;2023-03-11T09:15:52;14.00;99.10
27409;DHT22;20413;50.782;7.152;2023-03-11T09:18:18;14.40;96.40
27409;DHT22;20413;50.782;7.152;2023-03-11T09:20:44;13.20;97.00
27409;DHT22;20413;50.782;7.152;2023-03-11T09:23:12;12.80;96.50
27409;DHT22;20413;50.782;7.152;2023-03-11T09:25:38;12.20;98.20
27409;DHT22;20413;50.782;7.152;2023-03-11T09:28:04;12.00;99.50
27409;DHT22;20413;50.782;7.152;2023-03-11T09:30:30;11.40;99.40
27409;DHT22;20413;50.782;7.152;2023-03-11T09:32:56;10.30;99.90
27409;DHT22;20413;50.782;7.152;2023-03-11T09:35:21;9.70;99.90
27409;DHT22;20413;50.782;7.152;2023-03-11T09:37:47;9.10;99.90
27409;DHT22;20413;50.782;7.152;2023-03-11T09:40:16;9.00;99.90
27409;DHT22;20413;50.782;7.152;2023-03-11T09:45:28;8.30;99.90
27409;DHT22;20413;50.782;7.152;2023-03-11T09:48:09;8.00;99.90
27409;DHT22;20413;50.782;7.152;2023-03-11T09:50:49;7.90;99.90
27409;DHT22;20413;50.782;7.152;2023-03-11T09:53:38;7.80;99.90
27409;DHT22;20413;50.782;7.152;2023-03-11T09:56:07;7.40;99.90
27409;DHT22;20413;50.782;7.152;2023-03-11T09:58:49;7.50;99.90
27409;DHT22;20413;50.782;7.152;2023-03-11T10:03:44;7.40;99.90
27409;DHT22;20413;50.782;7.152;2023-03-11T10:08:53;7.20;99.90
27409;DHT22;20413;50.782;7.152;2023-03-11T10:11:33;7.40;99.90
27409;DHT22;20413;50.782;7.152;2023-03-11T10:14:08;7.50;99.90
27409;DHT22;20413;50.782;7.152;2023-03-11T10:22:13;7.40;99.90
27409;DHT22;20413;50.782;7.152;2023-03-11T10:25:02;7.60;99.90
27409;DHT22;20413;50.782;7.152;2023-03-11T10:27:36;7.70;99.90
27409;DHT22;20413;50.782;7.152;2023-03-11T10:30:23;7.70;99.90
27409;DHT22;20413;50.782;7.152;2023-03-11T10:33:04;7.80;99.90
27409;DHT22;20413;50.782;7.152;2023-03-11T10:35:38;7.60;99.90
27409;DHT22;20413;50.782;7.152;2023-03-11T10:38:21;7.30;99.90
27409;DHT22;20413;50.782;7.152;2023-03-11T10:40:50;7.00;99.90
27409;DHT22;20413;50.782;7.152;2023-03-11T10:43:30;6.80;99.90
27409;DHT22;20413;50.782;7.152;2023-03-11T10:45:58;6.70;99.90
27409;DHT22;20413;50.782;7.152;2023-03-11T10:48:24;6.60;99.90
27409;DHT22;20413;50.782;7.152;2023-03-11T10:50:56;6.50;99.90
27409;DHT22;20413;50.782;7.152;2023-03-11T10:53:26;6.60;99.90
27409;DHT22;20413;50.782;7.152;2023-03-11T10:55:54;6.80;99.90
27409;DHT22;20413;50.782;7.152;2023-03-11T10:58:28;7.00;99.90
27409;DHT22;20413;50.782;7.152;2023-03-11T11:01:13;7.40;99.90
27409;DHT22;20413;50.782;7.152;2023-03-11T11:03:41;7.80;99.90
27409;DHT22;20413;50.782;7.152;2023-03-11T11:08:44;8.50;99.90
27409;DHT22;20413;50.782;7.152;2023-03-11T11:11:21;8.70;99.90
27409;DHT22;20413;50.782;7.152;2023-03-11T11:13:58;8.80;99.90
27409;DHT22;20413;50.782;7.152;2023-03-11T11:16:25;9.00;99.90
27409;DHT22;20413;50.782;7.152;2023-03-11T11:19:10;9.10;99.90
27409;DHT22;20413;50.782;7.152;2023-03-11T11:21:46;9.20;99.90
27409;DHT22;20413;50.782;7.152;2023-03-11T11:24:26;9.50;99.90
27409;DHT22;20413;50.782;7.152;2023-03-11T11:29:36;8.80;99.90
27409;DHT22;20413;50.782;7.152;2023-03-11T11:34:41;8.60;99.90
27409;DHT22;20413;50.782;7.152;2023-03-11T11:37:11;8.50;99.90
27409;DHT22;20413;50.782;7.152;2023-03-11T11:39:48;8.40;99.90
27409;DHT22;20413;50.782;7.152;2023-03-11T11:42:16;8.50;99.90
27409;DHT22;20413;50.782;7.152;2023-03-11T11:44:45;8.80;99.90
27409;DHT22;20413;50.782;7.152;2023-03-11T11:47:18;8.80;99.90
27409;DHT22;20413;50.782;7.152;2023-03-11T11:49:57;8.70;99.90
27409;DHT22;20413;50.782;7.152;2023-03-11T11:52:32;8.80;99.90
27409;DHT22;20413;50.782;7.152;2023-03-11T11:55:07;8.90;99.90
27409;DHT22;20413;50.782;7.152;2023-03-11T11:57:37;9.00;99.90
27409;DHT22;20413;50.782;7.152;2023-03-11T12:00:05;9.00;99.90
27409;DHT22;20413;50.782;7.152;2023-03-11T12:03:16;9.10;99.90
27409;DHT22;20413;50.782;7.152;2023-03-11T12:05:53;9.30;99.90
27409;DHT22;20413;50.782;7.152;2023-03-11T12:08:48;9.20;99.90
27409;DHT22;20413;50.782;7.152;2023-03-11T12:11:22;9.10;99.90
27409;DHT22;20413;50.782;7.152;2023-03-11T12:14:18;9.30;99.90
27409;DHT22;20413;50.782;7.152;2023-03-11T12:16:57;9.50;99.90
27409;DHT22;20413;50.782;7.152;2023-03-11T12:30:37;10.70;98.40
27409;DHT22;20413;50.782;7.152;2023-03-11T12:33:17;11.80;99.80
27409;DHT22;20413;50.782;7.152;2023-03-11T12:35:51;12.50;98.10
27409;DHT22;20413;50.782;7.152;2023-03-11T12:38:24;12.70;96.60
27409;DHT22;20413;50.782;7.152;2023-03-11T12:46:01;13.00;95.10
27409;DHT22;20413;50.782;7.152;2023-03-11T12:51:02;12.60;93.90
27409;DHT22;20413;50.782;7.152;2023-03-11T12:53:48;12.30;95.00
27409;DHT22;20413;50.782;7.152;2023-03-11T12:59:08;11.90;96.70
27409;DHT22;20413;50.782;7.152;2023-03-11T13:02:22;11.40;95.20
27409;DHT22;20413;50.782;7.152;2023-03-11T13:04:58;10.90;95.20
27409;DHT22;20413;50.782;7.152;2023-03-11T13:07:39;10.40;96.20
27409;DHT22;20413;50.782;7.152;2023-03-11T13:10:17;10.40;97.30
27409;DHT22;20413;50.782;7.152;2023-03-11T13:12:45;10.30;98.10
27409;DHT22;20413;50.782;7.152;2023-03-11T13:23:19;9.70;99.10
27409;DHT22;20413;50.782;7.152;2023-03-11T13:33:59;12.00;96.00
27409;DHT22;20413;50.782;7.152;2023-03-11T13:36:50;12.00;96.30
27409;DHT22;20413;50.782;7.152;2023-03-11T13:41:56;12.60;97.90
27409;DHT22;20413;50.782;7.152;2023-03-11T13:44:32;13.20;96.10
27409;DHT22;20413;50.782;7.152;2023-03-11T13:47:13;13.90;95.40
27409;DHT22;20413;50.782;7.152;2023-03-11T13:50:09;14.50;93.20
27409;DHT22;20413;50.782;7.152;2023-03-11T13:52:49;15.00;94.30
27409;DHT22;20413;50.782;7.152;2023-03-11T13:55:26;15.90;92.40
27409;DHT22;20413;50.782;7.152;2023-03-11T13:57:54;15.60;91.10
27409;DHT22;20413;50.782;7.152;2023-03-11T14:00:25;14.50;90.80
27409;DHT22;20413;50.782;7.152;2023-03-11T14:02:58;14.60;90.90
27409;DHT22;20413;50.782;7.152;2023-03-11T14:05:36;15.10;89.10
27409;DHT22;20413;50.782;7.152;2023-03-11T14:08:23;15.20;88.90
27409;DHT22;20413;50.782;7.152;2023-03-11T14:10:54;15.90;84.30
27409;DHT22;20413;50.782;7.152;2023-03-11T14:13:20;15.80;81.30
27409;DHT22;20413;50.782;7.152;2023-03-11T14:16:08;15.70;85.90
27409;DHT22;20413;50.782;7.152;2023-03-11T14:18:40;15.50;83.40
27409;DHT22;20413;50.782;7.152;2023-03-11T14:21:18;14.70;86.50
27409;DHT22;20413;50.782;7.152;2023-03-11T14:23:47;15.30;89.10
27409;DHT22;20413;50.782;7.152;2023-03-11T14:26:28;15.90;77.80
27409;DHT22;20413;50.782;7.152;2023-03-11T14:28:59;16.50;81.60
27409;DHT22;20413;50.782;7.152;2023-03-11T14:31:40;18.10;80.50
27409;DHT22;20413;50.782;7.152;2023-03-11T14:34:18;19.20;80.30
27409;DHT22;20413;50.782;7.152;2023-03-11T14:36:48;18.60;70.10
27409;DHT22;20413;50.782;7.152;2023-03-11T14:47:23;19.20;66.50
27409;DHT22;20413;50.782;7.152;2023-03-11T14:49:51;18.70;73.70
27409;DHT22;20413;50.782;7.152;2023-03-11T14:52:29;18.20;74.00
27409;DHT22;20413;50.782;7.152;2023-03-11T14:54:57;18.30;72.30
27409;DHT22;20413;50.782;7.152;2023-03-11T14:57:42;17.60;71.90
27409;DHT22;20413;50.782;7.152;2023-03-11T15:00:18;16.10;74.10
27409;DHT22;20413;50.782;7.152;2023-03-11T15:03:02;14.30;78.30
27409;DHT22;20413;50.782;7.152;2023-03-11T15:05:43;13.20;82.20
27409;DHT22;20413;50.782;7.152;2023-03-11T15:08:09;13.20;87.80
27409;DHT22;20413;50.782;7.152;2023-03-11T15:10:35;13.00;85.00
27409;DHT22;20413;50.782;7.152;2023-03-11T15:13:14;12.30;86.70
27409;DHT22;20413;50.782;7.152;2023-03-11T15:15:40;12.30;85.80
27409;DHT22;20413;50.782;7.152;2023-03-11T15:18:23;12.80;85.20
27409;DHT22;20413;50.782;7.152;2023-03-11T15:23:38;14.30;82.50
27409;DHT22;20413;50.782;7.152;2023-03-11T15:26:04;15.20;78.70
27409;DHT22;20413;50.782;7.152;2023-03-11T15:28:33;16.00;75.90
27409;DHT22;20413;50.782;7.152;2023-03-11T15:33:46;16.00;75.50
27409;DHT22;20413;50.782;7.152;2023-03-11T15:36:33;16.00;75.10
27409;DHT22;20413;50.782;7.152;2023-03-11T15:39:20;16.10;78.70
27409;DHT22;20413;50.782;7.152;2023-03-11T15:47:14;16.60;78.50
27409;DHT22;20413;50.782;7.152;2023-03-11T15:49:40;16.70;75.20
27409;DHT22;20413;50.782;7.152;2023-03-11T15:52:06;15.80;75.10
27409;DHT22;20413;50.782;7.152;2023-03-11T15:54:32;16.20;73.00
27409;DHT22;20413;50.782;7.152;2023-03-11T15:56:58;15.80;71.00
27409;DHT22;20413;50.782;7.152;2023-03-11T15:59:28;15.20;77.70
27409;DHT22;20413;50.782;7.152;2023-03-11T16:01:54;15.70;77.10
27409;DHT22;20413;50.782;7.152;2023-03-11T16:04:20;15.20;77.80
27409;DHT22;20413;50.782;7.152;2023-03-11T16:06:47;15.20;76.50
27409;DHT22;20413;50.782;7.152;2023-03-11T16:09:14;15.40;77.70
27409;DHT22;20413;50.782;7.152;2023-03-11T16:11:41;15.20;77.50
27409;DHT22;20413;50.782;7.152;2023-03-11T16:14:16;15.10;78.00
27409;DHT22;20413;50.782;7.152;2023-03-11T16:16:43;14.50;77.00
27409;DHT22;20413;50.782;7.152;2023-03-11T16:19:08;13.80;80.40
27409;DHT22;20413;50.782;7.152;2023-03-11T16:21:36;13.30;81.00
27409;DHT22;20413;50.782;7.152;2023-03-11T16:24:04;12.90;83.70
27409;DHT22;20413;50.782;7.152;2023-03-11T16:26:30;12.50;84.40
27409;DHT22;20413;50.782;7.152;2023-03-11T16:28:57;12.40;83.30
27409;DHT22;20413;50.782;7.152;2023-03-11T16:31:23;12.20;84.20
27409;DHT22;20413;50.782;7.152;2023-03-11T16:33:48;12.60;89.50
27409;DHT22;20413;50.782;7.152;2023-03-11T16:36:14;12.90;89.80
27409;DHT22;20413;50.782;7.152;2023-03-11T16:38:47;12.80;87.30
27409;DHT22;20413;50.782;7.152;2023-03-11T16:41:13;12.90;88.60
27409;DHT22;20413;50.782;7.152;2023-03-11T16:43:39;12.80;84.60
27409;DHT22;20413;50.782;7.152;2023-03-11T16:46:05;12.50;84.40
27409;DHT22;20413;50.782;7.152;2023-03-11T16:48:31;12.10;90.90
27409;DHT22;20413;50.782;7.152;2023-03-11T16:50:57;11.70;90.20
27409;DHT22;20413;50.782;7.152;2023-03-11T16:53:22;11.40;91.00
27409;DHT22;20413;50.782;7.152;2023-03-11T16:55:49;10.90;90.90
27409;DHT22;20413;50.782;7.152;2023-03-11T16:58:15;10.70;92.50
27409;DHT22;20413;50.782;7.152;2023-03-11T17:00:41;10.30;91.80
27409;DHT22;20413;50.782;7.152;2023-03-11T17:03:11;9.90;92.80
27409;DHT22;20413;50.782;7.152;2023-03-11T17:05:37;9.50;92.90
27409;DHT22;20413;50.782;7.152;2023-03-11T17:08:02;9.20;94.00
27409;DHT22;20413;50.782;7.152;2023-03-11T17:10:49;8.90;95.50
27409;DHT22;20413;50.782;7.152;2023-03-11T17:13:16;8.60;96.60
27409;DHT22;20413;50.782;7.152;2023-03-11T17:15:42;8.20;97.30
27409;DHT22;20413;50.782;7.152;2023-03-11T17:18:09;7.90;99.00
27409;DHT22;20413;50.782;7.152;2023-03-11T17:20:38;7.60;99.90
27409;DHT22;20413;50.782;7.152;2023-03-11T17:23:04;7.20;99.90
27409;DHT22;20413;50.782;7.152;2023-03-11T17:25:30;6.90;99.90
27409;DHT22;20413;50.782;7.152;2023-03-11T17:27:56;6.70;99.90
27409;DHT22;20413;50.782;7.152;2023-03-11T17:30:22;6.40;99.90